Time;durP1;ratioP1;P1;durP2;ratioP2;P2;SDS_P1;SDS_P2;PMS_P1;PMS_P2;Temp;Humidity;BMP_temperature;BMP_pressure;BME280_temperature;BME280_humidity;BME280_pressure;Samples;Min_cycle;Max_cycle;Signal;HPM_P1;HPM_P2
2023/10/29 00:02:22;;;;;;;3.45;0.20;;;;;;;12.02;100.00;100265.25;5049601;28;20045;-71
2023/10/29 00:04:47;;;;;;;2.17;0.32;;;;;;;11.96;100.00;100269.31;5050690;28;20035;-71
2023/10/29 00:07:13;;;;;;;2.72;0.55;;;;;;;11.89;100.00;100276.16;5051104;28;20166;-71
2023/10/29 00:09:38;;;;;;;3.08;0.22;;;;;;;11.90;100.00;100283.00;5050313;28;20071;-71
2023/10/29 00:12:04;;;;;;;2.92;0.30;;;;;;;11.96;100.00;100286.78;5051589;28;20025;-71
2023/10/29 00:14:30;;;;;;;3.72;0.38;;;;;;;12.01;100.00;100283.69;5050602;28;20025;-71
2023/10/29 00:16:56;;;;;;;2.40;0.40;;;;;;;12.04;100.00;100284.19;5050103;28;20033;-71
2023/10/29 00:19:21;;;;;;;2.38;0.52;;;;;;;12.03;100.00;100290.41;5050633;28;20029;-71
2023/10/29 00:21:47;;;;;;;5.38;0.47;;;;;;;12.03;100.00;100293.00;5049919;28;20115;-71
2023/10/29 00:24:12;;;;;;;4.00;0.47;;;;;;;12.04;100.00;100293.81;5050828;28;20363;-71
2023/10/29 00:26:38;;;;;;;4.28;0.30;;;;;;;12.02;100.00;100299.19;5049743;28;20048;-70
2023/10/29 00:29:04;;;;;;;6.68;0.32;;;;;;;11.98;100.00;100297.06;5051072;28;20029;-71
2023/10/29 00:31:29;;;;;;;2.40;0.45;;;;;;;11.99;100.00;100296.91;5048877;28;20017;-70
2023/10/29 00:33:55;;;;;;;0.60;0.30;;;;;;;11.98;100.00;100304.91;5050597;28;20090;-71
2023/10/29 00:36:21;;;;;;;3.25;0.30;;;;;;;11.96;100.00;100292.00;5050490;28;20048;-70
2023/10/29 00:38:46;;;;;;;4.40;0.38;;;;;;;11.96;100.00;100295.44;5050434;28;20029;-71
2023/10/29 00:41:12;;;;;;;2.35;0.40;;;;;;;11.93;100.00;100297.53;5049094;28;20169;-71
2023/10/29 00:43:40;;;;;;;3.63;0.30;;;;;;;11.94;100.00;100288.72;5048030;28;20037;-71
2023/10/29 00:46:07;;;;;;;4.10;0.30;;;;;;;11.93;100.00;100289.69;5050496;28;20149;-71
2023/10/29 00:48:33;;;;;;;3.92;0.20;;;;;;;11.92;100.00;100291.50;5050143;28;20371;-71
2023/10/29 00:51:00;;;;;;;3.25;0.22;;;;;;;11.89;100.00;100285.78;5049751;28;20036;-71
2023/10/29 00:53:26;;;;;;;1.73;0.30;;;;;;;11.85;100.00;100293.09;5049422;28;20033;-71
2023/10/29 00:55:52;;;;;;;6.40;0.20;;;;;;;11.82;100.00;100290.78;5050579;28;20378;-71
2023/10/29 00:58:20;;;;;;;1.67;0.20;;;;;;;11.81;100.00;100290.97;5050598;28;20150;-71
2023/10/29 01:00:46;;;;;;;0.80;0.28;;;;;;;11.77;100.00;100284.44;5049774;28;20032;-71
2023/10/29 01:03:11;;;;;;;0.65;0.20;;;;;;;11.73;100.00;100283.06;5050044;28;20028;-71
2023/10/29 01:05:38;;;;;;;3.10;0.20;;;;;;;11.71;100.00;100267.56;5050093;28;20033;-71
2023/10/29 01:08:05;;;;;;;5.78;0.30;;;;;;;11.70;100.00;100276.38;5050227;28;20485;-71
2023/10/29 01:10:32;;;;;;;2.05;0.10;;;;;;;11.75;100.00;100273.31;5050009;28;20044;-71
2023/10/29 01:12:58;;;;;;;0.90;0.17;;;;;;;11.78;100.00;100273.84;5050286;28;20610;-71
2023/10/29 01:15:23;;;;;;;0.50;0.13;;;;;;;11.74;100.00;100274.28;5050522;28;20135;-71
2023/10/29 01:17:48;;;;;;;2.05;0.20;;;;;;;11.72;100.00;100284.06;5049471;28;20039;-71
2023/10/29 01:20:14;;;;;;;0.90;0.20;;;;;;;11.64;100.00;100285.66;5049866;28;20124;-71
2023/10/29 01:22:39;;;;;;;3.17;0.25;;;;;;;11.53;100.00;100280.69;5049605;28;20060;-71
2023/10/29 01:25:09;;;;;;;1.33;0.30;;;;;;;11.49;100.00;100281.97;5051218;28;20075;-71
2023/10/29 01:27:35;;;;;;;3.10;0.60;;;;;;;11.44;100.00;100281.59;5049164;28;20409;-71
2023/10/29 01:30:01;;;;;;;1.17;0.20;;;;;;;11.40;100.00;100274.25;5045258;28;20509;-71
2023/10/29 01:32:26;;;;;;;2.72;0.30;;;;;;;11.45;100.00;100278.03;5049681;28;20044;-71
2023/10/29 01:34:52;;;;;;;3.40;0.40;;;;;;;11.48;100.00;100288.16;5046376;28;20108;-71
2023/10/29 01:37:17;;;;;;;2.65;0.30;;;;;;;11.61;100.00;100299.00;5049073;28;20040;-71
2023/10/29 01:39:43;;;;;;;3.22;0.30;;;;;;;11.72;100.00;100299.72;5049618;28;20044;-71
2023/10/29 01:42:08;;;;;;;2.25;0.30;;;;;;;11.73;100.00;100298.75;5049563;28;20025;-72
2023/10/29 01:44:34;;;;;;;2.80;0.20;;;;;;;11.73;100.00;100303.97;5049498;28;20025;-71
2023/10/29 01:46:59;;;;;;;2.05;0.40;;;;;;;11.79;100.00;100311.19;5051688;28;20033;-72
2023/10/29 01:49:24;;;;;;;3.83;0.52;;;;;;;11.82;100.00;100318.69;5049066;28;20040;-70
2023/10/29 01:51:50;;;;;;;6.22;0.95;;;;;;;11.81;100.00;100320.50;5053982;28;20058;-71
2023/10/29 01:54:15;;;;;;;1.50;0.38;;;;;;;11.82;100.00;100321.31;5055143;28;20116;-71
2023/10/29 01:56:41;;;;;;;5.80;0.30;;;;;;;11.87;100.00;100329.47;5051118;28;20032;-71
2023/10/29 01:59:07;;;;;;;2.47;0.43;;;;;;;11.89;100.00;100324.94;5049804;28;20029;-71
2023/10/29 02:01:33;;;;;;;3.50;0.43;;;;;;;11.88;100.00;100325.91;5048658;28;20056;-71
2023/10/29 02:03:58;;;;;;;1.77;0.13;;;;;;;11.89;100.00;100317.09;5049887;28;20046;-71
2023/10/29 02:06:24;;;;;;;3.78;0.30;;;;;;;11.85;100.00;100326.22;5047500;28;20537;-71
2023/10/29 02:08:49;;;;;;;1.00;0.20;;;;;;;11.87;100.00;100324.25;5054908;28;20028;-71
2023/10/29 02:11:15;;;;;;;1.25;0.28;;;;;;;11.88;100.00;100318.88;5049372;28;20024;-70
2023/10/29 02:13:40;;;;;;;1.58;0.30;;;;;;;11.94;100.00;100323.50;5051880;28;20064;-71
2023/10/29 02:16:06;;;;;;;3.60;0.20;;;;;;;11.83;100.00;100312.50;5049546;28;20436;-71
2023/10/29 02:18:31;;;;;;;1.50;0.20;;;;;;;11.82;100.00;100310.84;5052425;28;20396;-71
2023/10/29 02:20:57;;;;;;;3.95;0.32;;;;;;;11.78;100.00;100309.56;5048848;28;20723;-71
2023/10/29 02:23:22;;;;;;;1.63;0.30;;;;;;;11.77;100.00;100319.19;5051265;28;20035;-71
2023/10/29 02:25:47;;;;;;;7.55;0.52;;;;;;;11.66;100.00;100311.59;5045502;28;20036;-71
2023/10/29 02:28:13;;;;;;;1.83;0.40;;;;;;;11.60;100.00;100312.19;5054682;28;20036;-71
2023/10/29 02:30:39;;;;;;;2.17;0.30;;;;;;;11.58;100.00;100319.38;5048816;28;20486;-70
2023/10/29 02:33:04;;;;;;;1.20;0.30;;;;;;;11.61;100.00;100321.66;5053434;28;20182;-71
2023/10/29 02:35:30;;;;;;;1.75;0.40;;;;;;;11.51;100.00;100320.94;5047288;28;20068;-71
2023/10/29 02:37:55;;;;;;;1.27;0.20;;;;;;;11.51;100.00;100320.94;5046666;28;20545;-71
2023/10/29 02:40:21;;;;;;;3.58;0.50;;;;;;;11.56;100.00;100322.13;5052624;28;20028;-71
2023/10/29 02:42:46;;;;;;;3.63;0.22;;;;;;;11.63;100.00;100330.97;5055182;28;20029;-71
2023/10/29 02:45:11;;;;;;;4.20;0.40;;;;;;;11.70;100.00;100332.97;5050847;28;20032;-71
2023/10/29 02:47:37;;;;;;;8.65;0.47;;;;;;;11.81;100.00;100341.41;5050706;28;20095;-71
2023/10/29 02:50:03;;;;;;;2.20;0.30;;;;;;;11.88;100.00;100341.56;5052398;28;20049;-71
2023/10/29 02:52:29;;;;;;;0.90;0.30;;;;;;;11.93;100.00;100334.91;5054104;28;20047;-71
2023/10/29 02:54:56;;;;;;;1.42;0.30;;;;;;;11.99;100.00;100336.06;5053910;28;20400;-71
2023/10/29 02:57:23;;;;;;;4.03;0.40;;;;;;;11.98;100.00;100341.44;5058552;28;20036;-71
2023/10/29 02:59:48;;;;;;;3.65;0.30;;;;;;;12.01;100.00;100334.13;5052651;28;20029;-71
2023/10/29 03:02:14;;;;;;;5.82;0.38;;;;;;;12.09;100.00;100335.97;5051823;28;20044;-71
2023/10/29 03:04:39;;;;;;;3.58;0.47;;;;;;;12.11;100.00;100340.03;5052456;28;20032;-71
2023/10/29 03:07:05;;;;;;;2.13;0.30;;;;;;;12.15;100.00;100328.31;5051050;28;20032;-71
2023/10/29 03:09:30;;;;;;;1.60;0.20;;;;;;;12.16;100.00;100329.94;5051873;28;20136;-71
2023/10/29 03:11:56;;;;;;;4.75;0.40;;;;;;;12.18;100.00;100333.22;5054647;28;20031;-71
2023/10/29 03:14:21;;;;;;;4.40;0.30;;;;;;;12.24;100.00;100335.22;5052767;28;20497;-71
2023/10/29 03:16:47;;;;;;;2.25;0.20;;;;;;;12.24;100.00;100334.38;5051300;28;20055;-71
2023/10/29 03:19:12;;;;;;;1.25;0.32;;;;;;;12.18;100.00;100338.44;5051557;28;20036;-70
2023/10/29 03:21:37;;;;;;;2.10;0.30;;;;;;;12.17;100.00;100339.41;5054202;28;20025;-71
2023/10/29 03:24:03;;;;;;;0.90;0.30;;;;;;;12.14;100.00;100347.56;5055766;28;20043;-70
2023/10/29 03:26:29;;;;;;;1.33;0.50;;;;;;;12.11;100.00;100342.66;5052060;28;20090;-70
2023/10/29 03:28:54;;;;;;;3.65;0.20;;;;;;;12.14;100.00;100342.34;5049189;28;20064;-71
2023/10/29 03:31:20;;;;;;;3.95;0.20;;;;;;;12.21;100.00;100355.59;5055796;28;20064;-70
2023/10/29 03:33:46;;;;;;;1.42;0.20;;;;;;;12.25;100.00;100355.13;5053918;28;20041;-70
2023/10/29 03:36:12;;;;;;;1.73;0.17;;;;;;;12.26;100.00;100348.94;5052091;28;20052;-70
2023/10/29 03:38:38;;;;;;;1.17;0.20;;;;;;;12.19;100.00;100340.09;5047314;28;20041;-71
2023/10/29 03:41:04;;;;;;;3.10;0.30;;;;;;;12.16;100.00;100347.41;5046629;28;20103;-70
2023/10/29 03:43:29;;;;;;;1.73;0.30;;;;;;;12.16;100.00;100344.81;5050499;28;20041;-70
2023/10/29 03:45:55;;;;;;;3.33;0.25;;;;;;;12.18;100.00;100355.91;5055701;28;20096;-70
2023/10/29 03:48:20;;;;;;;2.40;0.20;;;;;;;12.25;100.00;100355.13;5050300;28;20029;-70
2023/10/29 03:50:46;;;;;;;1.13;0.30;;;;;;;12.28;100.00;100360.03;5052290;28;20048;-70
2023/10/29 03:53:11;;;;;;;2.83;0.30;;;;;;;12.28;100.00;100359.22;5051540;28;20111;-70
2023/10/29 03:55:37;;;;;;;0.43;0.10;;;;;;;12.31;100.00;100361.50;5050603;28;20044;-70
2023/10/29 03:58:04;;;;;;;3.05;0.50;;;;;;;12.18;100.00;100355.91;5053978;28;20025;-71
2023/10/29 04:00:29;;;;;;;0.80;0.20;;;;;;;12.12;100.00;100359.97;5050472;28;20036;-70
2023/10/29 04:02:55;;;;;;;0.85;0.20;;;;;;;12.13;100.00;100366.00;5050301;28;20035;-70
2023/10/29 04:05:21;;;;;;;2.05;0.40;;;;;;;12.09;100.00;100359.47;5054469;28;20041;-71
2023/10/29 04:07:47;;;;;;;3.65;0.30;;;;;;;12.06;100.00;100362.38;5049555;28;20037;-70
2023/10/29 04:10:13;;;;;;;3.83;0.40;;;;;;;12.12;100.00;100370.41;5051576;28;20029;-70
2023/10/29 04:12:39;;;;;;;0.95;0.35;;;;;;;12.18;100.00;100366.34;5053736;28;20029;-70
2023/10/29 04:15:05;;;;;;;0.75;0.15;;;;;;;12.18;100.00;100366.34;5051492;28;20025;-71
2023/10/29 04:17:31;;;;;;;1.85;0.30;;;;;;;12.20;100.00;100367.03;5055184;28;20044;-71
2023/10/29 04:19:56;;;;;;;1.75;0.30;;;;;;;12.26;100.00;100367.22;5050519;28;20402;-71
2023/10/29 04:22:22;;;;;;;0.52;0.28;;;;;;;12.29;100.00;100366.06;5053081;28;20031;-71
2023/10/29 04:24:48;;;;;;;2.95;0.30;;;;;;;12.38;100.00;100364.28;5050428;28;20064;-71
2023/10/29 04:27:14;;;;;;;2.85;0.20;;;;;;;12.40;100.00;100368.38;5048029;28;20036;-71
2023/10/29 04:29:39;;;;;;;4.60;0.40;;;;;;;12.46;100.00;100361.72;5051312;28;20033;-71
2023/10/29 04:32:05;;;;;;;2.58;0.30;;;;;;;12.49;100.00;100367.44;5053129;28;20028;-71
2023/10/29 04:34:31;;;;;;;1.60;0.40;;;;;;;12.52;100.00;100367.13;5050466;28;20041;-71
2023/10/29 04:36:56;;;;;;;1.55;0.25;;;;;;;12.58;100.00;100368.28;5054961;28;20074;-70
2023/10/29 04:39:22;;;;;;;4.68;0.30;;;;;;;12.56;100.00;100362.38;5053686;28;20029;-71
2023/10/29 04:41:47;;;;;;;4.45;0.40;;;;;;;12.53;100.00;100352.25;5049863;28;20029;-70
2023/10/29 04:44:13;;;;;;;3.97;0.40;;;;;;;12.48;100.00;100342.28;5050630;28;20505;-71
2023/10/29 04:46:38;;;;;;;3.15;0.30;;;;;;;12.46;100.00;100341.63;5048236;28;20040;-71
2023/10/29 04:49:04;;;;;;;0.65;0.20;;;;;;;12.47;100.00;100337.22;5052318;28;20025;-71
2023/10/29 04:51:32;;;;;;;0.65;0.10;;;;;;;12.45;100.00;100337.38;5050191;28;20421;-71
2023/10/29 04:53:57;;;;;;;2.22;0.20;;;;;;;12.43;100.00;100333.28;5048025;28;20033;-71
2023/10/29 04:56:23;;;;;;;6.43;0.50;;;;;;;12.44;100.00;100338.34;5050105;28;20025;-71
2023/10/29 04:58:48;;;;;;;1.35;0.20;;;;;;;12.45;100.00;100326.09;5055760;28;20021;-71
2023/10/29 05:01:17;;;;;;;1.52;0.20;;;;;;;12.41;100.00;100330.00;5052767;28;20033;-71
2023/10/29 05:03:44;;;;;;;4.85;0.20;;;;;;;12.42;100.00;100327.22;5047666;28;20096;-71
2023/10/29 05:06:20;;;;;;;3.05;0.35;;;;;;;12.38;100.00;100332.94;5049589;28;20147;-71
2023/10/29 05:08:46;;;;;;;2.30;0.20;;;;;;;12.37;100.00;100328.69;5048281;28;20036;-70
2023/10/29 05:11:12;;;;;;;2.42;0.20;;;;;;;12.33;100.00;100329.97;5050397;28;20035;-70
2023/10/29 05:13:39;;;;;;;5.07;0.15;;;;;;;12.35;100.00;100328.03;5049282;28;20128;-70
2023/10/29 05:16:05;;;;;;;1.90;0.30;;;;;;;12.28;100.00;100322.66;5051822;28;20029;-71
2023/10/29 05:18:30;;;;;;;0.90;0.20;;;;;;;12.27;100.00;100321.81;5052939;28;20032;-70
2023/10/29 05:20:56;;;;;;;0.60;0.20;;;;;;;12.26;100.00;100322.81;5056020;28;20037;-71
2023/10/29 05:23:21;;;;;;;3.72;0.30;;;;;;;12.27;100.00;100324.44;5051915;28;20039;-71
2023/10/29 05:25:47;;;;;;;2.42;0.15;;;;;;;12.28;100.00;100322.66;5052279;28;20037;-71
2023/10/29 05:28:12;;;;;;;2.25;0.25;;;;;;;12.29;100.00;100325.06;5049930;28;20056;-70
2023/10/29 05:30:39;;;;;;;2.75;0.20;;;;;;;12.30;100.00;100339.78;5052581;28;20121;-71
2023/10/29 05:33:04;;;;;;;3.33;0.20;;;;;;;12.28;100.00;100346.16;5051800;28;20020;-71
2023/10/29 05:35:30;;;;;;;4.18;0.25;;;;;;;12.28;100.00;100343.53;5051713;28;20413;-71
2023/10/29 05:37:55;;;;;;;2.92;0.28;;;;;;;12.27;100.00;100347.94;5049979;28;20037;-71
2023/10/29 05:40:21;;;;;;;1.85;0.30;;;;;;;12.25;100.00;100346.47;5047926;28;20025;-71
2023/10/29 05:42:46;;;;;;;3.10;0.20;;;;;;;12.24;100.00;100342.22;5049243;28;20056;-71
2023/10/29 05:45:11;;;;;;;3.97;0.45;;;;;;;12.19;100.00;100344.50;5049998;28;20129;-71
2023/10/29 05:47:37;;;;;;;2.28;0.20;;;;;;;12.18;100.00;100355.91;5049363;28;20104;-71
2023/10/29 05:50:04;;;;;;;2.92;0.40;;;;;;;12.16;100.00;100353.47;5049201;28;20057;-71
2023/10/29 05:52:30;;;;;;;3.17;0.47;;;;;;;12.12;100.00;100352.13;5049085;28;20124;-71
2023/10/29 05:54:56;;;;;;;2.83;0.60;;;;;;;12.15;100.00;100358.84;5049686;28;20112;-71
2023/10/29 05:57:21;;;;;;;1.02;0.30;;;;;;;12.15;100.00;100361.44;5046112;28;20051;-71
2023/10/29 05:59:47;;;;;;;3.33;0.40;;;;;;;12.18;100.00;100371.59;5047682;28;20141;-71
2023/10/29 06:02:12;;;;;;;5.53;0.30;;;;;;;12.20;100.00;100383.50;5047345;28;20048;-71
2023/10/29 06:04:38;;;;;;;2.05;0.20;;;;;;;12.26;100.00;100387.28;5045742;28;20033;-70
2023/10/29 06:07:04;;;;;;;2.85;0.60;;;;;;;12.28;100.00;100391.38;5049337;28;20049;-70
2023/10/29 06:09:29;;;;;;;1.65;0.28;;;;;;;12.31;100.00;100398.06;5049216;28;20410;-71
2023/10/29 06:11:54;;;;;;;3.75;0.40;;;;;;;12.35;100.00;100402.00;5048402;28;20037;-71
2023/10/29 06:14:20;;;;;;;3.42;0.50;;;;;;;12.41;100.00;100405.78;5051202;28;20033;-70
2023/10/29 06:16:46;;;;;;;2.38;0.20;;;;;;;12.41;100.00;100411.00;5053328;28;20125;-71
2023/10/29 06:19:11;;;;;;;3.38;0.50;;;;;;;12.40;100.00;100407.56;5053628;28;20117;-71
2023/10/29 06:21:37;;;;;;;2.42;0.20;;;;;;;12.40;100.00;100410.19;5056042;28;20599;-70
2023/10/29 06:24:02;;;;;;;0.95;0.30;;;;;;;12.41;100.00;100422.28;5053899;28;20524;-70
2023/10/29 06:26:28;;;;;;;7.45;0.50;;;;;;;12.43;100.00;100430.78;5049946;28;20071;-71
2023/10/29 06:28:53;;;;;;;1.98;0.40;;;;;;;12.41;100.00;100437.13;5053446;28;20033;-71
2023/10/29 06:31:18;;;;;;;3.05;0.20;;;;;;;12.47;100.00;100441.72;5048437;28;20086;-70
2023/10/29 06:33:44;;;;;;;1.15;0.25;;;;;;;12.54;100.00;100450.59;5055753;28;20028;-70
2023/10/29 06:36:10;;;;;;;1.40;0.30;;;;;;;12.64;100.00;100453.91;5056281;28;20064;-70
2023/10/29 06:38:35;;;;;;;2.25;0.40;;;;;;;12.63;100.00;100458.31;5053297;28;20040;-70
2023/10/29 06:41:02;;;;;;;4.30;0.30;;;;;;;12.65;100.00;100455.53;5052488;28;20040;-71
2023/10/29 06:43:27;;;;;;;2.22;0.30;;;;;;;12.71;100.00;100462.75;5053039;28;20032;-70
2023/10/29 06:45:53;;;;;;;2.38;0.43;;;;;;;12.73;100.00;100460.78;5052466;28;20039;-70
2023/10/29 06:48:18;;;;;;;5.03;0.50;;;;;;;12.75;100.00;100456.22;5051826;28;20036;-71
2023/10/29 06:50:44;;;;;;;2.67;0.40;;;;;;;12.78;100.00;100449.84;5049663;28;20064;-70
2023/10/29 06:53:09;;;;;;;4.72;0.43;;;;;;;12.79;100.00;100451.47;5052568;28;20492;-70
2023/10/29 06:55:40;;;;;;;4.22;0.45;;;;;;;12.86;100.00;100460.31;5052245;28;20230;-71
2023/10/29 06:58:05;;;;;;;2.35;0.20;;;;;;;12.91;100.00;100466.72;5052825;28;20041;-71
2023/10/29 07:00:31;;;;;;;4.25;0.50;;;;;;;12.95;100.00;100460.19;5051529;28;20020;-71
2023/10/29 07:02:57;;;;;;;2.63;0.20;;;;;;;13.01;100.00;100456.13;5052809;28;20050;-71
2023/10/29 07:05:22;;;;;;;1.42;0.20;;;;;;;13.08;100.00;100470.19;5052468;28;20091;-70
2023/10/29 07:07:48;;;;;;;6.32;0.60;;;;;;;13.16;100.00;100469.44;5052395;28;20037;-70
2023/10/29 07:10:13;;;;;;;3.35;0.20;;;;;;;13.22;100.00;100468.78;5052528;28;20044;-71
2023/10/29 07:12:39;;;;;;;1.58;0.43;;;;;;;13.29;100.00;100475.81;5050258;28;20048;-70
2023/10/29 07:15:05;;;;;;;2.60;0.22;;;;;;;13.35;100.00;100473.53;5050780;28;20418;-70
2023/10/29 07:17:31;;;;;;;6.00;0.30;;;;;;;13.40;100.00;100466.81;5051646;28;20457;-70
2023/10/29 07:19:56;;;;;;;1.63;0.20;;;;;;;13.43;100.00;100470.91;5052362;28;20028;-70
2023/10/29 07:22:21;;;;;;;2.45;0.28;;;;;;;13.40;100.00;100472.06;5052063;28;20028;-70
2023/10/29 07:24:47;;;;;;;1.88;0.22;;;;;;;13.40;100.00;100472.06;5050992;28;20054;-71
2023/10/29 07:27:12;;;;;;;2.25;0.30;;;;;;;13.40;100.00;100479.91;5051191;28;20162;-71
2023/10/29 07:29:38;;;;;;;3.85;0.20;;;;;;;13.41;100.00;100481.53;5051783;28;20037;-70
2023/10/29 07:32:03;;;;;;;3.55;0.13;;;;;;;13.42;100.00;100483.19;5052340;28;20481;-69
2023/10/29 07:34:29;;;;;;;6.95;0.38;;;;;;;13.42;100.00;100483.19;5051388;28;20078;-70
2023/10/29 07:36:54;;;;;;;1.92;0.20;;;;;;;13.45;100.00;100489.91;5051099;28;20028;-71
2023/10/29 07:39:19;;;;;;;2.33;0.20;;;;;;;13.45;100.00;100501.19;5050672;28;20098;-70
2023/10/29 07:41:45;;;;;;;2.78;0.20;;;;;;;13.48;100.00;100506.09;5051446;28;20028;-70
2023/10/29 07:44:10;;;;;;;2.65;0.40;;;;;;;13.47;100.00;100504.44;5051920;28;20124;-71
2023/10/29 07:46:36;;;;;;;4.18;0.50;;;;;;;13.48;100.00;100489.56;5051251;28;20037;-70
2023/10/29 07:49:01;;;;;;;4.40;0.40;;;;;;;13.53;100.00;100492.53;5052002;28;20032;-70
2023/10/29 07:51:27;;;;;;;1.58;0.38;;;;;;;13.57;100.00;100493.84;5050655;28;20104;-71
2023/10/29 07:53:52;;;;;;;4.63;0.32;;;;;;;13.61;100.00;100485.50;5052296;28;20025;-73
2023/10/29 07:56:20;;;;;;;5.05;0.60;;;;;;;13.63;100.00;100495.81;5051613;28;20037;-73
2023/10/29 07:58:46;;;;;;;3.60;0.50;;;;;;;13.65;100.00;100485.16;5049810;28;20033;-73
2023/10/29 08:01:13;;;;;;;3.03;0.30;;;;;;;13.66;100.00;100478.94;5053426;28;20047;-73
2023/10/29 08:03:43;;;;;;;4.18;0.45;;;;;;;13.69;100.00;100481.25;5044663;28;20052;-74
2023/10/29 08:06:09;;;;;;;2.13;0.40;;;;;;;13.73;100.00;100478.09;5050881;28;20040;-73
2023/10/29 08:08:35;;;;;;;3.70;0.55;;;;;;;13.80;100.00;100480.88;5049829;28;20044;-74
2023/10/29 08:11:01;;;;;;;1.10;0.40;;;;;;;13.87;100.00;100479.25;5051474;28;20528;-74
2023/10/29 08:13:26;;;;;;;1.75;0.20;;;;;;;13.95;100.00;100474.00;5050585;28;20064;-74
2023/10/29 08:15:52;;;;;;;5.47;0.40;;;;;;;14.00;100.00;100469.09;5051180;28;20450;-75
2023/10/29 08:18:17;;;;;;;7.25;0.30;;;;;;;14.03;100.00;100476.63;5051347;28;20090;-73
2023/10/29 08:20:43;;;;;;;1.35;0.20;;;;;;;14.04;100.00;100480.88;5047986;28;20032;-74
2023/10/29 08:23:08;;;;;;;5.00;0.50;;;;;;;14.06;100.00;100481.53;5051378;28;20146;-73
2023/10/29 08:25:38;;;;;;;3.58;0.30;;;;;;;14.08;100.00;100481.34;5050610;28;20037;-74
2023/10/29 08:28:05;;;;;;;6.97;0.50;;;;;;;14.04;100.00;100474.81;5050943;28;20478;-74
2023/10/29 08:30:30;;;;;;;2.92;0.63;;;;;;;14.05;100.00;100487.75;5050214;28;20040;-74
2023/10/29 08:32:56;;;;;;;4.30;0.35;;;;;;;14.07;100.00;100487.56;5052610;28;20086;-74
2023/10/29 08:35:21;;;;;;;4.32;0.20;;;;;;;14.10;100.00;100489.88;5051987;28;20123;-74
2023/10/29 08:37:47;;;;;;;2.22;0.30;;;;;;;14.08;100.00;100487.41;5049726;28;20465;-74
2023/10/29 08:40:13;;;;;;;4.35;0.30;;;;;;;14.09;100.00;100494.28;5054325;28;20029;-74
2023/10/29 08:42:38;;;;;;;2.28;0.30;;;;;;;14.11;100.00;100499.38;5050736;28;20420;-73
2023/10/29 08:45:04;;;;;;;1.27;0.20;;;;;;;14.08;100.00;100490.03;5055608;28;20487;-74
2023/10/29 08:47:31;;;;;;;2.03;0.30;;;;;;;14.11;100.00;100492.31;5048264;28;20382;-73
2023/10/29 08:49:57;;;;;;;1.83;0.40;;;;;;;14.14;100.00;100492.00;5050372;28;20386;-74
2023/10/29 08:52:22;;;;;;;3.47;0.32;;;;;;;14.14;100.00;100502.47;5053535;28;20024;-73
2023/10/29 08:54:48;;;;;;;4.07;0.30;;;;;;;14.13;100.00;100506.06;5048829;28;20029;-73
2023/10/29 08:57:14;;;;;;;1.80;0.20;;;;;;;14.16;100.00;100500.50;5052143;28;20036;-74
2023/10/29 08:59:40;;;;;;;2.28;0.32;;;;;;;14.19;100.00;100499.31;5051194;28;20473;-73
2023/10/29 09:02:07;;;;;;;2.10;0.20;;;;;;;14.23;100.00;100505.88;5043693;28;20033;-73
2023/10/29 09:04:39;;;;;;;5.95;0.55;;;;;;;14.26;100.00;100495.06;5048904;28;20032;-73
2023/10/29 09:07:05;;;;;;;6.38;0.20;;;;;;;14.33;100.00;100489.97;5047810;28;20163;-73
2023/10/29 09:09:31;;;;;;;1.73;0.20;;;;;;;14.41;100.00;100496.03;5047400;28;20401;-73
2023/10/29 09:11:57;;;;;;;1.65;0.52;;;;;;;14.46;100.00;100508.63;5050128;28;20025;-73
2023/10/29 09:14:22;;;;;;;1.73;0.20;;;;;;;14.47;100.00;100508.47;5048333;28;20375;-72
2023/10/29 09:16:48;;;;;;;4.68;0.57;;;;;;;14.52;100.00;100510.59;5049597;28;20032;-72
2023/10/29 09:19:17;;;;;;;2.38;0.28;;;;;;;14.54;100.00;100504.19;5048935;28;20028;-72
2023/10/29 09:21:44;;;;;;;1.08;0.32;;;;;;;14.63;100.00;100509.41;5048936;28;20028;-72
2023/10/29 09:24:09;;;;;;;3.95;0.20;;;;;;;14.70;100.00;100497.22;5052796;28;20032;-72
2023/10/29 09:26:36;;;;;;;7.68;0.20;;;;;;;14.78;100.00;100498.00;5048682;28;20024;-72
2023/10/29 09:29:02;;;;;;;2.90;1.00;;;;;;;14.88;100.00;100490.75;5049732;28;20035;-73
2023/10/29 09:31:28;;;;;;;3.42;0.30;;;;;;;14.93;100.00;100485.00;5047257;28;20433;-72
2023/10/29 09:33:53;;;;;;;2.72;0.30;;;;;;;15.02;100.00;100491.84;5049469;28;20033;-72
2023/10/29 09:36:19;;;;;;;1.80;0.40;;;;;;;15.12;100.00;100489.78;5048481;28;20032;-72
2023/10/29 09:38:45;;;;;;;4.00;0.40;;;;;;;15.21;100.00;100495.81;5047755;28;20041;-73
2023/10/29 09:41:10;;;;;;;1.17;0.40;;;;;;;15.26;100.00;100490.84;5043900;28;20053;-72
2023/10/29 09:43:41;;;;;;;2.13;0.30;;;;;;;15.36;100.00;100491.44;5043173;28;20558;-72
2023/10/29 09:46:07;;;;;;;2.10;0.30;;;;;;;15.48;100.00;100492.69;5047018;28;20037;-72
2023/10/29 09:48:36;;;;;;;1.83;0.40;;;;;;;15.60;100.00;100488.66;5045036;28;20045;-72
2023/10/29 09:51:04;;;;;;;1.33;0.40;;;;;;;15.71;100.00;100497.94;5043537;28;20045;-72
2023/10/29 09:53:31;;;;;;;1.38;0.40;;;;;;;15.83;100.00;100495.72;5048177;28;20028;-72
2023/10/29 09:55:57;;;;;;;2.35;0.55;;;;;;;16.00;100.00;100502.47;5048095;28;20033;-72
2023/10/29 09:58:24;;;;;;;2.63;0.30;;;;;;;16.17;100.00;100497.84;5049029;28;20119;-72
2023/10/29 10:00:50;;;;;;;3.20;0.30;;;;;;;16.30;100.00;100502.47;5049629;28;20029;-72
2023/10/29 10:03:16;;;;;;;0.65;0.10;;;;;;;16.32;100.00;100500.47;5047566;28;20037;-72
2023/10/29 10:05:42;;;;;;;0.93;0.17;;;;;;;16.41;100.00;100494.16;5047017;28;20057;-72
2023/10/29 10:08:09;;;;;;;3.55;0.38;;;;;;;16.42;100.00;100493.16;5048265;28;20040;-72
2023/10/29 10:10:41;;;;;;;1.92;0.13;;;;;;;16.47;100.00;100488.16;5046698;28;20493;-73
2023/10/29 10:13:07;;;;;;;3.67;0.20;;;;;;;16.48;100.00;100481.91;5048415;28;20029;-72
2023/10/29 10:15:33;;;;;;;4.88;0.20;;;;;;;16.63;100.00;100487.94;5045589;28;20033;-72
2023/10/29 10:18:06;;;;;;;1.20;0.20;;;;;;;16.71;100.00;100480.00;5045870;28;20090;-72
2023/10/29 10:20:32;;;;;;;3.15;0.10;;;;;;;16.84;100.00;100481.97;5046074;28;20064;-72
2023/10/29 10:23:02;;;;;;;1.27;0.10;;;;;;;16.85;100.00;100484.41;5047267;28;20029;-72
2023/10/29 10:25:28;;;;;;;0.77;0.30;;;;;;;16.80;100.00;100493.84;5045862;28;20041;-72
2023/10/29 10:27:56;;;;;;;4.05;0.28;;;;;;;16.89;100.00;100493.56;5047238;28;20371;-72
2023/10/29 10:30:33;;;;;;;0.60;0.13;;;;;;;17.00;100.00;100505.44;5048195;28;20025;-72
2023/10/29 10:33:14;;;;;;;1.58;0.15;;;;;;;17.14;100.00;100498.50;5047246;28;20024;-72
2023/10/29 10:35:43;;;;;;;1.27;0.20;;;;;;;17.12;100.00;100497.84;5041503;28;20095;-72
2023/10/29 10:38:08;;;;;;;2.00;0.20;;;;;;;17.09;100.00;100492.97;5045538;28;20029;-72
2023/10/29 10:40:34;;;;;;;2.58;0.20;;;;;;;17.20;100.00;100495.13;5045086;28;20083;-74
2023/10/29 10:43:01;;;;;;;0.75;0.10;;;;;;;17.21;100.00;100489.66;5045551;28;20059;-74
2023/10/29 10:45:28;;;;;;;2.20;0.20;;;;;;;17.17;100.00;100484.94;5045531;28;20047;-75
2023/10/29 10:48:04;;;;;;;1.02;0.30;;;;;;;17.18;100.00;100489.22;5044985;28;20113;-75
2023/10/29 10:50:32;;;;;;;4.10;0.28;;;;;;;17.16;100.00;100486.78;5044291;28;20045;-75
2023/10/29 10:52:58;;;;;;;1.95;0.28;;;;;;;17.21;100.00;100496.75;5045712;28;20029;-74
2023/10/29 10:55:28;;;;;;;4.05;0.65;;;;;;;17.18;100.00;100486.59;5043808;28;20477;-74
2023/10/29 10:57:55;;;;;;;2.65;0.20;;;;;;;17.20;100.00;100484.59;5044224;28;20057;-74
2023/10/29 11:00:24;;;;;;;2.42;0.52;;;;;;;17.19;100.00;100490.84;5043643;28;20119;-73
2023/10/29 11:02:50;;;;;;;2.38;0.28;;;;;;;17.03;100.00;100480.53;5047469;28;20036;-73
2023/10/29 11:05:17;;;;;;;0.98;0.20;;;;;;;17.05;100.00;100476.72;5049876;28;20025;-73
2023/10/29 11:07:44;;;;;;;1.20;0.20;;;;;;;17.13;100.00;100486.31;5049922;28;20139;-74
2023/10/29 11:10:14;;;;;;;0.22;0.10;;;;;;;17.21;100.00;100487.03;5048775;28;20033;-74
2023/10/29 11:12:40;;;;;;;0.90;0.15;;;;;;;17.21;100.00;100489.66;5047520;28;20407;-74